sensor_id;sensor_type;location;lat;lon;timestamp;P1;durP1;ratioP1;P2;durP2;ratioP2
28958;SDS011;16066;0.000;0.000;2023-12-07T06:00:28;18.00;;;13.07;;
28958;SDS011;16066;0.000;0.000;2023-12-07T06:02:54;18.40;;;12.40;;
28958;SDS011;16066;0.000;0.000;2023-12-07T06:05:19;14.77;;;11.30;;
28958;SDS011;16066;0.000;0.000;2023-12-07T06:07:46;18.23;;;13.13;;
28958;SDS011;16066;0.000;0.000;2023-12-07T06:10:11;17.40;;;13.13;;
28958;SDS011;16066;0.000;0.000;2023-12-07T06:12:37;17.73;;;12.50;;
28958;SDS011;16066;0.000;0.000;2023-12-07T06:15:02;16.63;;;12.60;;
28958;SDS011;16066;0.000;0.000;2023-12-07T06:17:31;17.10;;;12.53;;
28958;SDS011;16066;0.000;0.000;2023-12-07T06:19:58;16.53;;;12.33;;
28958;SDS011;16066;0.000;0.000;2023-12-07T06:22:24;17.23;;;12.70;;
28958;SDS011;16066;0.000;0.000;2023-12-07T06:24:49;17.60;;;12.83;;
28958;SDS011;16066;0.000;0.000;2023-12-07T06:27:15;17.23;;;13.30;;
28958;SDS011;16066;0.000;0.000;2023-12-07T06:29:40;18.50;;;13.57;;
28958;SDS011;16066;0.000;0.000;2023-12-07T06:32:06;15.53;;;11.67;;
28958;SDS011;16066;0.000;0.000;2023-12-07T06:34:32;15.90;;;12.87;;
28958;SDS011;16066;0.000;0.000;2023-12-07T06:36:57;15.97;;;12.57;;
28958;SDS011;16066;0.000;0.000;2023-12-07T06:39:23;16.90;;;12.77;;
28958;SDS011;16066;0.000;0.000;2023-12-07T06:41:48;20.80;;;13.07;;
28958;SDS011;16066;0.000;0.000;2023-12-07T06:44:14;20.03;;;13.20;;
28958;SDS011;16066;0.000;0.000;2023-12-07T06:46:39;18.87;;;13.00;;
28958;SDS011;16066;0.000;0.000;2023-12-07T06:49:05;19.23;;;13.13;;
28958;SDS011;16066;0.000;0.000;2023-12-07T06:51:30;16.03;;;12.70;;
28958;SDS011;16066;0.000;0.000;2023-12-07T06:53:56;19.40;;;11.10;;
28958;SDS011;16066;0.000;0.000;2023-12-07T06:56:22;17.07;;;12.03;;
28958;SDS011;16066;0.000;0.000;2023-12-07T06:58:48;16.60;;;12.37;;
28958;SDS011;16066;0.000;0.000;2023-12-07T07:01:13;17.07;;;11.40;;
28958;SDS011;16066;0.000;0.000;2023-12-07T07:03:38;19.07;;;12.13;;
28958;SDS011;16066;0.000;0.000;2023-12-07T07:06:04;12.03;;;9.57;;
28958;SDS011;16066;0.000;0.000;2023-12-07T07:08:30;13.73;;;10.60;;
28958;SDS011;16066;0.000;0.000;2023-12-07T07:10:55;16.03;;;11.83;;
28958;SDS011;16066;0.000;0.000;2023-12-07T07:13:21;15.30;;;11.00;;
28958;SDS011;16066;0.000;0.000;2023-12-07T07:15:47;17.77;;;12.47;;
28958;SDS011;16066;0.000;0.000;2023-12-07T07:18:13;20.00;;;12.63;;
28958;SDS011;16066;0.000;0.000;2023-12-07T07:20:38;15.93;;;12.20;;
28958;SDS011;16066;0.000;0.000;2023-12-07T07:23:04;18.87;;;14.20;;
28958;SDS011;16066;0.000;0.000;2023-12-07T07:25:30;19.23;;;14.20;;
28958;SDS011;16066;0.000;0.000;2023-12-07T07:27:56;16.93;;;12.80;;
28958;SDS011;16066;0.000;0.000;2023-12-07T07:30:21;18.93;;;14.80;;
28958;SDS011;16066;0.000;0.000;2023-12-07T07:32:47;20.40;;;13.93;;
28958;SDS011;16066;0.000;0.000;2023-12-07T07:35:13;18.97;;;14.10;;
28958;SDS011;16066;0.000;0.000;2023-12-07T07:37:39;19.07;;;14.20;;
28958;SDS011;16066;0.000;0.000;2023-12-07T07:40:06;19.07;;;14.50;;
28958;SDS011;16066;0.000;0.000;2023-12-07T07:42:32;17.80;;;13.83;;
28958;SDS011;16066;0.000;0.000;2023-12-07T07:44:58;19.20;;;14.43;;
28958;SDS011;16066;0.000;0.000;2023-12-07T07:47:24;27.00;;;15.93;;
28958;SDS011;16066;0.000;0.000;2023-12-07T07:49:49;28.77;;;15.43;;
28958;SDS011;16066;0.000;0.000;2023-12-07T07:52:15;21.27;;;15.10;;
28958;SDS011;16066;0.000;0.000;2023-12-07T07:54:40;20.00;;;14.27;;
28958;SDS011;16066;0.000;0.000;2023-12-07T07:57:06;20.47;;;14.57;;
28958;SDS011;16066;0.000;0.000;2023-12-07T07:59:32;22.13;;;13.30;;
28958;SDS011;16066;0.000;0.000;2023-12-07T08:01:57;17.27;;;13.63;;
28958;SDS011;16066;0.000;0.000;2023-12-07T08:04:23;16.97;;;13.07;;
28958;SDS011;16066;0.000;0.000;2023-12-07T08:06:49;17.67;;;12.03;;
28958;SDS011;16066;0.000;0.000;2023-12-07T08:09:14;19.20;;;11.77;;
28958;SDS011;16066;0.000;0.000;2023-12-07T08:11:40;13.57;;;11.30;;
28958;SDS011;16066;0.000;0.000;2023-12-07T08:14:05;15.30;;;11.40;;
28958;SDS011;16066;0.000;0.000;2023-12-07T08:16:31;14.80;;;10.87;;
28958;SDS011;16066;0.000;0.000;2023-12-07T08:18:57;20.83;;;11.50;;
28958;SDS011;16066;0.000;0.000;2023-12-07T08:21:23;14.03;;;10.73;;
28958;SDS011;16066;0.000;0.000;2023-12-07T08:23:49;14.20;;;11.17;;
28958;SDS011;16066;0.000;0.000;2023-12-07T08:26:14;13.40;;;10.73;;
28958;SDS011;16066;0.000;0.000;2023-12-07T08:28:41;14.63;;;11.10;;
28958;SDS011;16066;0.000;0.000;2023-12-07T08:31:06;12.70;;;9.67;;
28958;SDS011;16066;0.000;0.000;2023-12-07T08:33:32;14.97;;;10.50;;
28958;SDS011;16066;0.000;0.000;2023-12-07T08:36:01;13.53;;;9.80;;
28958;SDS011;16066;0.000;0.000;2023-12-07T08:38:27;14.53;;;10.03;;
28958;SDS011;16066;0.000;0.000;2023-12-07T08:40:53;13.37;;;10.30;;
28958;SDS011;16066;0.000;0.000;2023-12-07T08:43:20;11.80;;;9.57;;
28958;SDS011;16066;0.000;0.000;2023-12-07T08:45:48;18.83;;;10.90;;
28958;SDS011;16066;0.000;0.000;2023-12-07T08:48:14;13.47;;;9.93;;
28958;SDS011;16066;0.000;0.000;2023-12-07T08:50:39;14.73;;;9.80;;
28958;SDS011;16066;0.000;0.000;2023-12-07T08:53:05;16.50;;;9.77;;
28958;SDS011;16066;0.000;0.000;2023-12-07T08:55:31;18.90;;;10.80;;
28958;SDS011;16066;0.000;0.000;2023-12-07T08:57:57;15.47;;;9.70;;
28958;SDS011;16066;0.000;0.000;2023-12-07T09:00:24;14.57;;;10.50;;
28958;SDS011;16066;0.000;0.000;2023-12-07T09:02:50;13.13;;;9.90;;
28958;SDS011;16066;0.000;0.000;2023-12-07T09:05:16;15.33;;;9.50;;
28958;SDS011;16066;0.000;0.000;2023-12-07T09:07:42;13.87;;;9.53;;
28958;SDS011;16066;0.000;0.000;2023-12-07T09:10:08;13.37;;;9.97;;
28958;SDS011;16066;0.000;0.000;2023-12-07T09:12:34;18.00;;;9.70;;
28958;SDS011;16066;0.000;0.000;2023-12-07T09:15:01;17.77;;;9.97;;
28958;SDS011;16066;0.000;0.000;2023-12-07T09:17:30;15.63;;;11.37;;
28958;SDS011;16066;0.000;0.000;2023-12-07T09:19:56;15.80;;;11.47;;
28958;SDS011;16066;0.000;0.000;2023-12-07T09:22:21;17.23;;;11.30;;
28958;SDS011;16066;0.000;0.000;2023-12-07T09:24:47;14.53;;;10.87;;
28958;SDS011;16066;0.000;0.000;2023-12-07T09:27:15;13.43;;;10.70;;
28958;SDS011;16066;0.000;0.000;2023-12-07T09:29:40;14.07;;;10.00;;
28958;SDS011;16066;0.000;0.000;2023-12-07T09:32:07;14.10;;;9.90;;
28958;SDS011;16066;0.000;0.000;2023-12-07T09:34:32;12.90;;;9.77;;
28958;SDS011;16066;0.000;0.000;2023-12-07T09:37:05;14.23;;;10.17;;
28958;SDS011;16066;0.000;0.000;2023-12-07T09:39:34;14.00;;;10.53;;
28958;SDS011;16066;0.000;0.000;2023-12-07T09:41:59;25.70;;;10.10;;
28958;SDS011;16066;0.000;0.000;2023-12-07T09:44:26;16.77;;;10.20;;
28958;SDS011;16066;0.000;0.000;2023-12-07T09:46:51;16.33;;;8.63;;
28958;SDS011;16066;0.000;0.000;2023-12-07T09:49:17;20.90;;;11.90;;
28958;SDS011;16066;0.000;0.000;2023-12-07T09:51:43;23.20;;;11.60;;
28958;SDS011;16066;0.000;0.000;2023-12-07T09:54:11;13.67;;;9.37;;
28958;SDS011;16066;0.000;0.000;2023-12-07T09:56:36;16.20;;;11.10;;
28958;SDS011;16066;0.000;0.000;2023-12-07T09:59:02;17.23;;;10.53;;
28958;SDS011;16066;0.000;0.000;2023-12-07T10:01:29;14.77;;;10.30;;
28958;SDS011;16066;0.000;0.000;2023-12-07T10:04:19;16.73;;;11.97;;
28958;SDS011;16066;0.000;0.000;2023-12-07T10:06:45;17.63;;;10.63;;
28958;SDS011;16066;0.000;0.000;2023-12-07T10:09:12;14.30;;;10.37;;
28958;SDS011;16066;0.000;0.000;2023-12-07T10:11:38;13.83;;;10.20;;
28958;SDS011;16066;0.000;0.000;2023-12-07T10:14:05;17.37;;;10.50;;
28958;SDS011;16066;0.000;0.000;2023-12-07T10:16:33;18.20;;;10.20;;
28958;SDS011;16066;0.000;0.000;2023-12-07T10:19:12;16.20;;;11.60;;
28958;SDS011;16066;0.000;0.000;2023-12-07T10:21:39;17.27;;;11.63;;
28958;SDS011;16066;0.000;0.000;2023-12-07T10:24:05;12.97;;;9.83;;
28958;SDS011;16066;0.000;0.000;2023-12-07T10:26:31;15.70;;;11.70;;
28958;SDS011;16066;0.000;0.000;2023-12-07T10:28:56;16.60;;;10.43;;
28958;SDS011;16066;0.000;0.000;2023-12-07T10:31:24;17.87;;;11.93;;
28958;SDS011;16066;0.000;0.000;2023-12-07T10:33:51;14.73;;;11.27;;
28958;SDS011;16066;0.000;0.000;2023-12-07T10:36:17;15.10;;;10.30;;
28958;SDS011;16066;0.000;0.000;2023-12-07T10:38:42;18.73;;;11.20;;
28958;SDS011;16066;0.000;0.000;2023-12-07T10:41:10;16.40;;;11.13;;
28958;SDS011;16066;0.000;0.000;2023-12-07T10:43:38;16.13;;;11.30;;
28958;SDS011;16066;0.000;0.000;2023-12-07T10:46:07;19.33;;;11.73;;
28958;SDS011;16066;0.000;0.000;2023-12-07T10:48:34;17.03;;;12.33;;
28958;SDS011;16066;0.000;0.000;2023-12-07T10:51:02;18.20;;;10.67;;
28958;SDS011;16066;0.000;0.000;2023-12-07T10:53:40;18.40;;;11.70;;
28958;SDS011;16066;0.000;0.000;2023-12-07T10:56:14;20.97;;;12.50;;
28958;SDS011;16066;0.000;0.000;2023-12-07T10:58:48;21.13;;;11.20;;
28958;SDS011;16066;0.000;0.000;2023-12-07T11:01:15;17.77;;;11.80;;
28958;SDS011;16066;0.000;0.000;2023-12-07T11:03:42;17.73;;;11.53;;
28958;SDS011;16066;0.000;0.000;2023-12-07T11:06:08;19.33;;;11.97;;
28958;SDS011;16066;0.000;0.000;2023-12-07T11:08:55;19.30;;;12.60;;
28958;SDS011;16066;0.000;0.000;2023-12-07T11:11:29;18.30;;;12.27;;
28958;SDS011;16066;0.000;0.000;2023-12-07T11:13:59;17.63;;;12.07;;
28958;SDS011;16066;0.000;0.000;2023-12-07T11:16:37;19.10;;;12.93;;
28958;SDS011;16066;0.000;0.000;2023-12-07T11:19:06;17.60;;;13.20;;
28958;SDS011;16066;0.000;0.000;2023-12-07T11:21:57;17.00;;;12.43;;
28958;SDS011;16066;0.000;0.000;2023-12-07T11:24:24;18.90;;;13.33;;
28958;SDS011;16066;0.000;0.000;2023-12-07T11:26:53;17.87;;;12.70;;
28958;SDS011;16066;0.000;0.000;2023-12-07T11:29:20;19.53;;;12.37;;
28958;SDS011;16066;0.000;0.000;2023-12-07T11:31:46;20.43;;;13.47;;
28958;SDS011;16066;0.000;0.000;2023-12-07T11:34:13;25.03;;;13.90;;
28958;SDS011;16066;0.000;0.000;2023-12-07T11:36:39;19.50;;;13.77;;
28958;SDS011;16066;0.000;0.000;2023-12-07T11:41:40;23.40;;;13.60;;
28958;SDS011;16066;0.000;0.000;2023-12-07T11:44:09;21.77;;;13.80;;
28958;SDS011;16066;0.000;0.000;2023-12-07T11:46:36;20.67;;;13.20;;
28958;SDS011;16066;0.000;0.000;2023-12-07T11:49:02;21.87;;;12.23;;
28958;SDS011;16066;0.000;0.000;2023-12-07T11:51:29;20.70;;;13.70;;
28958;SDS011;16066;0.000;0.000;2023-12-07T11:53:54;18.40;;;12.17;;
28958;SDS011;16066;0.000;0.000;2023-12-07T11:56:20;17.80;;;12.20;;
28958;SDS011;16066;0.000;0.000;2023-12-07T11:58:46;20.20;;;13.30;;
28958;SDS011;16066;0.000;0.000;2023-12-07T12:01:12;18.67;;;13.70;;
28958;SDS011;16066;0.000;0.000;2023-12-07T12:03:38;21.13;;;14.40;;
28958;SDS011;16066;0.000;0.000;2023-12-07T12:06:04;22.13;;;13.93;;
28958;SDS011;16066;0.000;0.000;2023-12-07T12:08:31;21.13;;;14.53;;
28958;SDS011;16066;0.000;0.000;2023-12-07T12:10:57;19.70;;;13.97;;
28958;SDS011;16066;0.000;0.000;2023-12-07T12:13:41;24.00;;;14.33;;
28958;SDS011;16066;0.000;0.000;2023-12-07T12:16:06;29.23;;;19.67;;
28958;SDS011;16066;0.000;0.000;2023-12-07T12:18:32;27.77;;;17.60;;
28958;SDS011;16066;0.000;0.000;2023-12-07T12:20:58;25.80;;;15.97;;
28958;SDS011;16066;0.000;0.000;2023-12-07T12:23:25;28.33;;;18.07;;
28958;SDS011;16066;0.000;0.000;2023-12-07T12:25:50;26.70;;;16.93;;
28958;SDS011;16066;0.000;0.000;2023-12-07T12:28:17;27.27;;;17.80;;
28958;SDS011;16066;0.000;0.000;2023-12-07T12:30:46;26.50;;;17.87;;
28958;SDS011;16066;0.000;0.000;2023-12-07T12:33:13;25.03;;;17.07;;
28958;SDS011;16066;0.000;0.000;2023-12-07T12:35:39;28.23;;;18.50;;
28958;SDS011;16066;0.000;0.000;2023-12-07T12:38:11;24.73;;;16.30;;
28958;SDS011;16066;0.000;0.000;2023-12-07T12:40:37;28.53;;;17.03;;
28958;SDS011;16066;0.000;0.000;2023-12-07T12:43:03;25.40;;;15.83;;
28958;SDS011;16066;0.000;0.000;2023-12-07T12:45:30;23.80;;;16.90;;
28958;SDS011;16066;0.000;0.000;2023-12-07T12:47:57;26.70;;;16.47;;
28958;SDS011;16066;0.000;0.000;2023-12-07T12:53:18;27.43;;;16.40;;
28958;SDS011;16066;0.000;0.000;2023-12-07T12:55:45;24.27;;;15.23;;
28958;SDS011;16066;0.000;0.000;2023-12-07T12:58:12;24.87;;;15.23;;
28958;SDS011;16066;0.000;0.000;2023-12-07T13:00:37;24.43;;;15.53;;
28958;SDS011;16066;0.000;0.000;2023-12-07T13:03:04;21.27;;;13.70;;
28958;SDS011;16066;0.000;0.000;2023-12-07T13:05:30;25.40;;;16.20;;
28958;SDS011;16066;0.000;0.000;2023-12-07T13:07:59;23.90;;;15.73;;
28958;SDS011;16066;0.000;0.000;2023-12-07T13:10:26;24.67;;;16.40;;
28958;SDS011;16066;0.000;0.000;2023-12-07T13:12:52;22.80;;;15.23;;
28958;SDS011;16066;0.000;0.000;2023-12-07T13:15:17;20.43;;;14.73;;
28958;SDS011;16066;0.000;0.000;2023-12-07T13:17:43;23.60;;;15.13;;
28958;SDS011;16066;0.000;0.000;2023-12-07T13:20:09;20.33;;;14.70;;
28958;SDS011;16066;0.000;0.000;2023-12-07T13:22:38;18.90;;;13.30;;
28958;SDS011;16066;0.000;0.000;2023-12-07T13:25:05;24.77;;;14.50;;
28958;SDS011;16066;0.000;0.000;2023-12-07T13:27:34;20.63;;;14.30;;
28958;SDS011;16066;0.000;0.000;2023-12-07T13:30:00;21.00;;;14.57;;
28958;SDS011;16066;0.000;0.000;2023-12-07T13:32:30;20.40;;;14.53;;
28958;SDS011;16066;0.000;0.000;2023-12-07T13:34:56;20.53;;;13.37;;
28958;SDS011;16066;0.000;0.000;2023-12-07T13:37:21;18.67;;;14.07;;
28958;SDS011;16066;0.000;0.000;2023-12-07T13:39:47;23.63;;;14.90;;
28958;SDS011;16066;0.000;0.000;2023-12-07T13:42:18;20.13;;;14.30;;
28958;SDS011;16066;0.000;0.000;2023-12-07T13:44:43;20.97;;;14.33;;
28958;SDS011;16066;0.000;0.000;2023-12-07T13:47:09;18.83;;;13.80;;
28958;SDS011;16066;0.000;0.000;2023-12-07T13:49:35;18.37;;;13.60;;
28958;SDS011;16066;0.000;0.000;2023-12-07T13:52:01;19.43;;;13.57;;
28958;SDS011;16066;0.000;0.000;2023-12-07T13:54:27;20.43;;;13.80;;
28958;SDS011;16066;0.000;0.000;2023-12-07T13:56:52;16.67;;;13.00;;
28958;SDS011;16066;0.000;0.000;2023-12-07T13:59:18;18.70;;;13.40;;
28958;SDS011;16066;0.000;0.000;2023-12-07T14:01:44;18.23;;;13.23;;
28958;SDS011;16066;0.000;0.000;2023-12-07T14:04:09;21.37;;;15.00;;
28958;SDS011;16066;0.000;0.000;2023-12-07T14:06:35;17.87;;;12.97;;
28958;SDS011;16066;0.000;0.000;2023-12-07T14:09:01;19.70;;;13.70;;
28958;SDS011;16066;0.000;0.000;2023-12-07T14:11:27;17.77;;;13.07;;
28958;SDS011;16066;0.000;0.000;2023-12-07T14:13:53;18.60;;;14.23;;
28958;SDS011;16066;0.000;0.000;2023-12-07T14:16:19;19.43;;;13.83;;
28958;SDS011;16066;0.000;0.000;2023-12-07T14:18:46;17.33;;;12.60;;
28958;SDS011;16066;0.000;0.000;2023-12-07T14:21:11;20.70;;;14.03;;
28958;SDS011;16066;0.000;0.000;2023-12-07T14:23:39;19.43;;;13.63;;
28958;SDS011;16066;0.000;0.000;2023-12-07T14:26:05;17.60;;;12.63;;
28958;SDS011;16066;0.000;0.000;2023-12-07T14:28:30;19.83;;;13.27;;
28958;SDS011;16066;0.000;0.000;2023-12-07T14:30:58;19.63;;;13.23;;
28958;SDS011;16066;0.000;0.000;2023-12-07T14:33:25;17.80;;;13.20;;
28958;SDS011;16066;0.000;0.000;2023-12-07T14:35:50;17.23;;;13.30;;
28958;SDS011;16066;0.000;0.000;2023-12-07T14:38:16;19.60;;;13.83;;
28958;SDS011;16066;0.000;0.000;2023-12-07T14:40:41;21.00;;;13.10;;
28958;SDS011;16066;0.000;0.000;2023-12-07T14:43:07;19.07;;;13.23;;
28958;SDS011;16066;0.000;0.000;2023-12-07T14:45:39;21.90;;;13.98;;
28958;SDS011;16066;0.000;0.000;2023-12-07T14:48:19;18.57;;;13.00;;
28958;SDS011;16066;0.000;0.000;2023-12-07T14:51:00;18.15;;;12.70;;
28958;SDS011;16066;0.000;0.000;2023-12-07T14:54:21;15.83;;;11.87;;
28958;SDS011;16066;0.000;0.000;2023-12-07T14:56:51;19.13;;;12.17;;
28958;SDS011;16066;0.000;0.000;2023-12-07T14:59:22;20.67;;;12.40;;
28958;SDS011;16066;0.000;0.000;2023-12-07T15:01:51;28.53;;;12.80;;
28958;SDS011;16066;0.000;0.000;2023-12-07T15:04:40;16.57;;;11.97;;
28958;SDS011;16066;0.000;0.000;2023-12-07T15:07:06;19.33;;;12.70;;
28958;SDS011;16066;0.000;0.000;2023-12-07T15:09:32;16.47;;;12.47;;
28958;SDS011;16066;0.000;0.000;2023-12-07T15:12:00;17.03;;;12.17;;
28958;SDS011;16066;0.000;0.000;2023-12-07T15:14:26;17.00;;;12.70;;
28958;SDS011;16066;0.000;0.000;2023-12-07T15:16:51;15.97;;;11.50;;
28958;SDS011;16066;0.000;0.000;2023-12-07T15:19:19;18.90;;;12.47;;
28958;SDS011;16066;0.000;0.000;2023-12-07T15:21:45;19.13;;;11.30;;
28958;SDS011;16066;0.000;0.000;2023-12-07T15:24:10;17.27;;;11.43;;
28958;SDS011;16066;0.000;0.000;2023-12-07T15:26:36;18.87;;;10.93;;
28958;SDS011;16066;0.000;0.000;2023-12-07T15:29:06;15.80;;;10.57;;
28958;SDS011;16066;0.000;0.000;2023-12-07T15:31:32;14.97;;;10.97;;
28958;SDS011;16066;0.000;0.000;2023-12-07T15:33:58;15.27;;;10.70;;
28958;SDS011;16066;0.000;0.000;2023-12-07T15:36:24;15.97;;;11.43;;
28958;SDS011;16066;0.000;0.000;2023-12-07T15:38:49;19.33;;;11.70;;
28958;SDS011;16066;0.000;0.000;2023-12-07T15:41:15;16.03;;;11.13;;
28958;SDS011;16066;0.000;0.000;2023-12-07T15:43:41;14.60;;;10.37;;
28958;SDS011;16066;0.000;0.000;2023-12-07T15:46:06;13.17;;;9.40;;
28958;SDS011;16066;0.000;0.000;2023-12-07T15:48:32;15.70;;;10.90;;
28958;SDS011;16066;0.000;0.000;2023-12-07T15:50:59;14.90;;;10.00;;
28958;SDS011;16066;0.000;0.000;2023-12-07T15:53:24;17.03;;;10.27;;
28958;SDS011;16066;0.000;0.000;2023-12-07T15:55:50;13.70;;;10.03;;
28958;SDS011;16066;0.000;0.000;2023-12-07T15:58:16;13.17;;;9.67;;
28958;SDS011;16066;0.000;0.000;2023-12-07T16:00:43;14.77;;;10.33;;
28958;SDS011;16066;0.000;0.000;2023-12-07T16:03:08;12.90;;;9.00;;
28958;SDS011;16066;0.000;0.000;2023-12-07T16:05:34;13.40;;;9.60;;
28958;SDS011;16066;0.000;0.000;2023-12-07T16:08:00;13.83;;;9.17;;
28958;SDS011;16066;0.000;0.000;2023-12-07T16:10:25;12.43;;;9.57;;
28958;SDS011;16066;0.000;0.000;2023-12-07T16:12:51;12.80;;;8.63;;
28958;SDS011;16066;0.000;0.000;2023-12-07T16:15:17;13.40;;;9.40;;
28958;SDS011;16066;0.000;0.000;2023-12-07T16:17:42;13.40;;;9.80;;
28958;SDS011;16066;0.000;0.000;2023-12-07T16:20:08;15.20;;;8.93;;
28958;SDS011;16066;0.000;0.000;2023-12-07T16:22:36;13.87;;;8.77;;
28958;SDS011;16066;0.000;0.000;2023-12-07T16:25:02;12.40;;;9.23;;
28958;SDS011;16066;0.000;0.000;2023-12-07T16:27:28;12.27;;;9.00;;
28958;SDS011;16066;0.000;0.000;2023-12-07T16:29:53;13.57;;;8.60;;
28958;SDS011;16066;0.000;0.000;2023-12-07T16:32:19;11.47;;;8.00;;
28958;SDS011;16066;0.000;0.000;2023-12-07T16:34:45;14.70;;;8.90;;
28958;SDS011;16066;0.000;0.000;2023-12-07T16:37:10;10.97;;;7.93;;
28958;SDS011;16066;0.000;0.000;2023-12-07T16:39:42;11.30;;;8.90;;
28958;SDS011;16066;0.000;0.000;2023-12-07T16:42:09;12.93;;;8.30;;
28958;SDS011;16066;0.000;0.000;2023-12-07T16:44:35;14.63;;;8.77;;
28958;SDS011;16066;0.000;0.000;2023-12-07T16:47:01;12.43;;;8.93;;
28958;SDS011;16066;0.000;0.000;2023-12-07T16:49:26;11.73;;;8.40;;
28958;SDS011;16066;0.000;0.000;2023-12-07T16:51:52;11.40;;;8.70;;
28958;SDS011;16066;0.000;0.000;2023-12-07T16:54:18;11.87;;;9.07;;
28958;SDS011;16066;0.000;0.000;2023-12-07T16:56:43;10.10;;;7.90;;
28958;SDS011;16066;0.000;0.000;2023-12-07T16:59:09;18.77;;;9.50;;
28958;SDS011;16066;0.000;0.000;2023-12-07T17:01:35;13.80;;;9.03;;
28958;SDS011;16066;0.000;0.000;2023-12-07T17:04:00;11.27;;;7.80;;
28958;SDS011;16066;0.000;0.000;2023-12-07T17:06:26;12.37;;;8.67;;
28958;SDS011;16066;0.000;0.000;2023-12-07T17:08:51;11.70;;;8.63;;
28958;SDS011;16066;0.000;0.000;2023-12-07T17:11:20;10.97;;;8.57;;
28958;SDS011;16066;0.000;0.000;2023-12-07T17:13:46;17.83;;;8.50;;
28958;SDS011;16066;0.000;0.000;2023-12-07T17:16:13;10.33;;;7.40;;
28958;SDS011;16066;0.000;0.000;2023-12-07T17:18:39;10.93;;;6.80;;
28958;SDS011;16066;0.000;0.000;2023-12-07T17:21:04;10.27;;;7.90;;
28958;SDS011;16066;0.000;0.000;2023-12-07T17:23:30;11.97;;;8.10;;
28958;SDS011;16066;0.000;0.000;2023-12-07T17:25:55;11.70;;;8.10;;
28958;SDS011;16066;0.000;0.000;2023-12-07T17:28:21;12.00;;;7.00;;
28958;SDS011;16066;0.000;0.000;2023-12-07T17:30:47;11.03;;;8.07;;
28958;SDS011;16066;0.000;0.000;2023-12-07T17:33:12;10.30;;;7.33;;
28958;SDS011;16066;0.000;0.000;2023-12-07T17:35:38;11.20;;;8.00;;
28958;SDS011;16066;0.000;0.000;2023-12-07T17:38:03;11.80;;;7.50;;
28958;SDS011;16066;0.000;0.000;2023-12-07T17:40:29;10.47;;;6.90;;
28958;SDS011;16066;0.000;0.000;2023-12-07T17:42:54;12.33;;;8.23;;
28958;SDS011;16066;0.000;0.000;2023-12-07T17:45:20;9.53;;;6.43;;
28958;SDS011;16066;0.000;0.000;2023-12-07T17:47:45;10.37;;;7.50;;
28958;SDS011;16066;0.000;0.000;2023-12-07T17:50:11;11.73;;;8.30;;
28958;SDS011;16066;0.000;0.000;2023-12-07T17:52:36;11.10;;;8.03;;
28958;SDS011;16066;0.000;0.000;2023-12-07T17:55:03;13.77;;;10.10;;
28958;SDS011;16066;0.000;0.000;2023-12-07T17:57:29;17.07;;;11.00;;
28958;SDS011;16066;0.000;0.000;2023-12-07T17:59:54;17.57;;;11.00;;
28958;SDS011;16066;0.000;0.000;2023-12-07T18:02:20;19.50;;;11.93;;
28958;SDS011;16066;0.000;0.000;2023-12-07T18:04:45;18.23;;;11.47;;
28958;SDS011;16066;0.000;0.000;2023-12-07T18:07:11;16.77;;;11.03;;
28958;SDS011;16066;0.000;0.000;2023-12-07T18:09:36;18.63;;;12.43;;
28958;SDS011;16066;0.000;0.000;2023-12-07T18:12:02;18.57;;;11.53;;
28958;SDS011;16066;0.000;0.000;2023-12-07T18:14:29;14.40;;;11.37;;
28958;SDS011;16066;0.000;0.000;2023-12-07T18:16:54;15.07;;;11.20;;
28958;SDS011;16066;0.000;0.000;2023-12-07T18:19:20;20.13;;;11.30;;
28958;SDS011;16066;0.000;0.000;2023-12-07T18:21:46;15.87;;;11.67;;
28958;SDS011;16066;0.000;0.000;2023-12-07T18:24:12;15.40;;;11.43;;
28958;SDS011;16066;0.000;0.000;2023-12-07T18:26:37;18.17;;;11.73;;
28958;SDS011;16066;0.000;0.000;2023-12-07T18:29:03;16.70;;;11.53;;
28958;SDS011;16066;0.000;0.000;2023-12-07T18:31:30;17.87;;;12.70;;
28958;SDS011;16066;0.000;0.000;2023-12-07T18:33:56;20.87;;;12.07;;
28958;SDS011;16066;0.000;0.000;2023-12-07T18:36:21;16.73;;;12.40;;
28958;SDS011;16066;0.000;0.000;2023-12-07T18:38:47;15.37;;;11.00;;
28958;SDS011;16066;0.000;0.000;2023-12-07T18:41:12;15.40;;;11.00;;
28958;SDS011;16066;0.000;0.000;2023-12-07T18:43:38;14.57;;;10.87;;
28958;SDS011;16066;0.000;0.000;2023-12-07T18:46:09;17.87;;;11.30;;
28958;SDS011;16066;0.000;0.000;2023-12-07T18:48:35;14.53;;;11.20;;
28958;SDS011;16066;0.000;0.000;2023-12-07T18:51:03;15.50;;;10.80;;
28958;SDS011;16066;0.000;0.000;2023-12-07T18:53:31;14.87;;;10.77;;
28958;SDS011;16066;0.000;0.000;2023-12-07T18:55:57;15.20;;;10.50;;
28958;SDS011;16066;0.000;0.000;2023-12-07T18:58:24;13.57;;;9.83;;
28958;SDS011;16066;0.000;0.000;2023-12-07T19:00:51;13.37;;;10.27;;
28958;SDS011;16066;0.000;0.000;2023-12-07T19:03:17;15.27;;;11.67;;
28958;SDS011;16066;0.000;0.000;2023-12-07T19:05:43;13.73;;;10.80;;
28958;SDS011;16066;0.000;0.000;2023-12-07T19:08:09;14.10;;;10.37;;
28958;SDS011;16066;0.000;0.000;2023-12-07T19:10:38;13.10;;;10.57;;
28958;SDS011;16066;0.000;0.000;2023-12-07T19:13:06;14.40;;;11.30;;
28958;SDS011;16066;0.000;0.000;2023-12-07T19:15:32;14.47;;;10.93;;
28958;SDS011;16066;0.000;0.000;2023-12-07T19:17:58;14.63;;;10.60;;
28958;SDS011;16066;0.000;0.000;2023-12-07T19:20:24;13.07;;;10.67;;
28958;SDS011;16066;0.000;0.000;2023-12-07T19:22:50;15.47;;;10.87;;
28958;SDS011;16066;0.000;0.000;2023-12-07T19:25:16;26.10;;;10.97;;
28958;SDS011;16066;0.000;0.000;2023-12-07T19:27:41;13.97;;;10.70;;
28958;SDS011;16066;0.000;0.000;2023-12-07T19:30:08;15.53;;;10.83;;
28958;SDS011;16066;0.000;0.000;2023-12-07T19:32:34;13.83;;;11.20;;
28958;SDS011;16066;0.000;0.000;2023-12-07T19:34:59;14.00;;;9.77;;
28958;SDS011;16066;0.000;0.000;2023-12-07T19:37:25;13.97;;;10.63;;
28958;SDS011;16066;0.000;0.000;2023-12-07T19:39:51;13.73;;;10.63;;
28958;SDS011;16066;0.000;0.000;2023-12-07T19:42:16;12.23;;;9.67;;
28958;SDS011;16066;0.000;0.000;2023-12-07T19:44:42;13.37;;;10.17;;
28958;SDS011;16066;0.000;0.000;2023-12-07T19:47:08;14.40;;;11.00;;
28958;SDS011;16066;0.000;0.000;2023-12-07T19:49:34;14.43;;;10.47;;
28958;SDS011;16066;0.000;0.000;2023-12-07T19:51:59;15.20;;;11.27;;
28958;SDS011;16066;0.000;0.000;2023-12-07T19:54:24;16.90;;;12.80;;
28958;SDS011;16066;0.000;0.000;2023-12-07T19:56:52;15.70;;;11.53;;
28958;SDS011;16066;0.000;0.000;2023-12-07T19:59:18;15.63;;;11.47;;
28958;SDS011;16066;0.000;0.000;2023-12-07T20:01:43;15.33;;;11.30;;
28958;SDS011;16066;0.000;0.000;2023-12-07T20:04:09;15.80;;;12.03;;
28958;SDS011;16066;0.000;0.000;2023-12-07T20:06:36;16.00;;;11.00;;
28958;SDS011;16066;0.000;0.000;2023-12-07T20:09:01;16.80;;;12.07;;
28958;SDS011;16066;0.000;0.000;2023-12-07T20:11:27;14.83;;;11.30;;
28958;SDS011;16066;0.000;0.000;2023-12-07T20:13:53;16.10;;;12.27;;
28958;SDS011;16066;0.000;0.000;2023-12-07T20:16:19;14.13;;;11.13;;
28958;SDS011;16066;0.000;0.000;2023-12-07T20:18:45;15.95;;;12.07;;
28958;SDS011;16066;0.000;0.000;2023-12-07T20:21:12;16.17;;;11.60;;
28958;SDS011;16066;0.000;0.000;2023-12-07T20:23:37;15.03;;;11.10;;
28958;SDS011;16066;0.000;0.000;2023-12-07T20:26:07;15.10;;;11.63;;
28958;SDS011;16066;0.000;0.000;2023-12-07T20:28:42;14.67;;;11.43;;
28958;SDS011;16066;0.000;0.000;2023-12-07T20:31:11;15.40;;;11.80;;
28958;SDS011;16066;0.000;0.000;2023-12-07T20:33:37;14.23;;;11.10;;
28958;SDS011;16066;0.000;0.000;2023-12-07T20:36:02;13.10;;;10.27;;
28958;SDS011;16066;0.000;0.000;2023-12-07T20:38:29;13.93;;;11.33;;
28958;SDS011;16066;0.000;0.000;2023-12-07T20:40:54;14.07;;;11.00;;